Time;durP1;ratioP1;P1;durP2;ratioP2;P2;SDS_P1;SDS_P2;PMS_P1;PMS_P2;Temp;Humidity;BMP_temperature;BMP_pressure;BME280_temperature;BME280_humidity;BME280_pressure;Samples;Min_cycle;Max_cycle;Signal;HPM_P1;HPM_P2
2023/12/13 00:00:07;;;;;;;5.38;3.65;;;15.70;72.90;;;;;;345613;28;1079;-58
2023/12/13 00:00:18;;;;;;;5.63;3.53;;;15.70;72.90;;;;;;345625;28;991;-58
2023/12/13 00:00:29;;;;;;;5.30;3.42;;;15.70;72.90;;;;;;345590;28;1016;-58
2023/12/13 00:00:40;;;;;;;5.15;3.33;;;15.70;72.80;;;;;;345578;28;1044;-58
2023/12/13 00:00:51;;;;;;;4.87;3.30;;;15.70;72.80;;;;;;345696;28;1082;-59
2023/12/13 00:01:01;;;;;;;4.47;3.10;;;15.70;72.80;;;;;;345597;28;1040;-58
2023/12/13 00:01:12;;;;;;;4.45;2.97;;;15.70;72.80;;;;;;345693;28;818;-59
2023/12/13 00:01:24;;;;;;;4.03;2.90;;;15.70;72.80;;;;;;345690;28;1023;-59
2023/12/13 00:01:35;;;;;;;3.60;2.90;;;15.70;72.70;;;;;;345425;28;1138;-59
2023/12/13 00:01:45;;;;;;;4.15;2.90;;;15.70;72.70;;;;;;345637;28;1011;-58
2023/12/13 00:01:56;;;;;;;4.57;2.75;;;15.70;72.60;;;;;;345705;28;1048;-58
2023/12/13 00:02:07;;;;;;;4.82;2.88;;;15.70;72.60;;;;;;345602;28;1074;-58
2023/12/13 00:02:18;;;;;;;4.85;2.95;;;15.70;72.60;;;;;;345691;28;826;-59
2023/12/13 00:02:28;;;;;;;4.47;3.00;;;15.70;72.70;;;;;;345632;28;1040;-58
2023/12/13 00:02:39;;;;;;;3.45;2.53;;;15.70;72.70;;;;;;345561;28;996;-59
2023/12/13 00:02:50;;;;;;;3.17;2.25;;;15.70;72.70;;;;;;345690;28;968;-58
2023/12/13 00:03:01;;;;;;;3.22;2.22;;;15.70;72.60;;;;;;345678;28;865;-59
2023/12/13 00:03:12;;;;;;;3.83;2.42;;;15.70;72.60;;;;;;345602;28;1729;-59
2023/12/13 00:03:23;;;;;;;3.42;2.40;;;15.70;72.60;;;;;;345661;28;1024;-60
2023/12/13 00:03:34;;;;;;;3.10;2.40;;;15.70;72.50;;;;;;345641;28;1134;-60
2023/12/13 00:03:45;;;;;;;2.75;2.22;;;15.70;72.50;;;;;;345630;28;1551;-59
2023/12/13 00:03:56;;;;;;;2.80;2.40;;;15.70;72.50;;;;;;345678;28;1155;-59
2023/12/13 00:04:06;;;;;;;3.25;2.53;;;15.70;72.50;;;;;;345648;28;1746;-58
2023/12/13 00:04:17;;;;;;;3.60;2.70;;;15.70;72.60;;;;;;345442;28;1981;-59
2023/12/13 00:04:28;;;;;;;4.55;2.67;;;15.70;72.60;;;;;;345630;28;968;-59
2023/12/13 00:04:39;;;;;;;4.43;2.78;;;15.70;72.60;;;;;;345691;28;885;-60
2023/12/13 00:04:49;;;;;;;4.25;2.75;;;15.70;72.60;;;;;;345518;28;1028;-59
2023/12/13 00:05:00;;;;;;;3.20;2.55;;;15.70;72.60;;;;;;345674;28;1028;-59
2023/12/13 00:05:11;;;;;;;2.90;2.20;;;15.70;72.60;;;;;;345658;28;968;-59
2023/12/13 00:05:21;;;;;;;2.85;2.17;;;15.70;72.60;;;;;;345577;28;1119;-58
2023/12/13 00:05:32;;;;;;;2.80;2.25;;;15.70;72.60;;;;;;345623;28;1083;-59
2023/12/13 00:05:43;;;;;;;3.80;2.47;;;15.70;72.50;;;;;;345571;28;1032;-58
2023/12/13 00:05:54;;;;;;;4.00;2.57;;;15.70;72.50;;;;;;345653;28;837;-60
2023/12/13 00:06:05;;;;;;;4.43;2.70;;;15.70;72.50;;;;;;345707;28;1001;-58
2023/12/13 00:06:16;;;;;;;3.60;2.50;;;15.70;72.50;;;;;;345568;28;1222;-60
2023/12/13 00:06:28;;;;;;;3.70;2.58;;;15.70;72.50;;;;;;345648;28;1055;-58
2023/12/13 00:06:39;;;;;;;3.70;2.50;;;15.70;72.50;;;;;;345663;28;995;-58
2023/12/13 00:06:50;;;;;;;3.95;2.70;;;15.70;72.50;;;;;;345621;28;1291;-59
2023/12/13 00:07:00;;;;;;;3.80;2.60;;;15.70;72.60;;;;;;345670;28;1151;-59
2023/12/13 00:07:11;;;;;;;3.58;2.65;;;15.70;72.60;;;;;;345502;28;1020;-58
2023/12/13 00:07:22;;;;;;;3.42;2.70;;;15.70;72.60;;;;;;345706;28;806;-60
2023/12/13 00:07:33;;;;;;;3.53;2.67;;;15.70;72.60;;;;;;345655;28;857;-59
2023/12/13 00:07:44;;;;;;;3.83;2.75;;;15.70;72.70;;;;;;345678;28;1967;-58
2023/12/13 00:07:54;;;;;;;3.80;2.83;;;15.70;72.60;;;;;;345703;28;964;-58
2023/12/13 00:08:05;;;;;;;3.83;2.87;;;15.70;72.60;;;;;;345584;28;1138;-58
2023/12/13 00:08:19;;;;;;;3.42;2.60;;;15.70;72.60;;;;;;345667;28;905;-58
2023/12/13 00:08:30;;;;;;;3.42;2.70;;;15.70;72.60;;;;;;345671;28;1047;-59
2023/12/13 00:08:41;;;;;;;3.40;2.85;;;15.70;72.60;;;;;;345642;28;1032;-60
2023/12/13 00:08:52;;;;;;;3.45;2.97;;;15.70;72.60;;;;;;345559;28;1214;-58
2023/12/13 00:09:03;;;;;;;3.53;2.85;;;15.70;72.50;;;;;;345657;28;1591;-59
2023/12/13 00:09:14;;;;;;;4.03;2.88;;;15.70;72.50;;;;;;345600;28;1139;-58
2023/12/13 00:09:25;;;;;;;4.40;2.90;;;15.70;72.50;;;;;;345623;28;1806;-59
2023/12/13 00:09:37;;;;;;;5.00;2.85;;;15.70;72.50;;;;;;345612;28;1008;-59
2023/12/13 00:09:47;;;;;;;5.25;2.97;;;15.70;72.50;;;;;;345551;28;1860;-59
2023/12/13 00:09:58;;;;;;;5.15;2.80;;;15.70;72.60;;;;;;345722;28;829;-59
2023/12/13 00:10:09;;;;;;;4.10;2.80;;;15.70;72.60;;;;;;345712;28;1027;-58
2023/12/13 00:10:20;;;;;;;4.20;3.00;;;15.70;72.60;;;;;;345596;28;1073;-59
2023/12/13 00:10:31;;;;;;;4.13;3.13;;;15.70;72.70;;;;;;345652;28;1159;-58
2023/12/13 00:10:41;;;;;;;4.50;3.10;;;15.70;72.70;;;;;;345546;28;1457;-59
2023/12/13 00:10:57;;;;;;;4.18;2.80;;;15.70;72.70;;;;;;345597;28;1055;-58
2023/12/13 00:11:08;;;;;;;4.30;2.67;;;15.70;72.60;;;;;;345588;28;1616;-59
2023/12/13 00:11:19;;;;;;;3.97;2.65;;;15.70;72.60;;;;;;345555;28;1090;-59
2023/12/13 00:11:30;;;;;;;3.80;2.70;;;15.70;72.60;;;;;;345653;28;1032;-59
2023/12/13 00:11:41;;;;;;;3.20;2.55;;;15.70;72.60;;;;;;345647;28;1075;-59
2023/12/13 00:11:51;;;;;;;3.47;2.30;;;15.70;72.60;;;;;;345619;28;964;-58
2023/12/13 00:12:02;;;;;;;3.47;2.30;;;15.70;72.50;;;;;;345563;28;928;-60
2023/12/13 00:12:13;;;;;;;3.33;2.28;;;15.70;72.50;;;;;;345681;28;1990;-59
2023/12/13 00:12:24;;;;;;;3.03;2.47;;;15.70;72.60;;;;;;345631;28;1149;-59
2023/12/13 00:12:35;;;;;;;3.28;2.58;;;15.70;72.60;;;;;;345627;28;2260;-59
2023/12/13 00:12:46;;;;;;;3.10;2.38;;;15.70;72.60;;;;;;345609;28;994;-59
2023/12/13 00:12:56;;;;;;;3.35;2.45;;;15.70;72.50;;;;;;345686;28;976;-60
2023/12/13 00:13:07;;;;;;;3.13;2.40;;;15.70;72.50;;;;;;345599;28;1083;-59
2023/12/13 00:13:18;;;;;;;3.35;2.45;;;15.70;72.50;;;;;;345632;28;1012;-59
2023/12/13 00:13:29;;;;;;;3.20;2.40;;;15.70;72.50;;;;;;345589;28;948;-59
2023/12/13 00:13:40;;;;;;;3.08;2.40;;;15.70;72.50;;;;;;345681;28;880;-60
2023/12/13 00:13:51;;;;;;;3.63;2.45;;;15.70;72.40;;;;;;345695;28;817;-59
2023/12/13 00:14:01;;;;;;;3.55;2.40;;;15.70;72.30;;;;;;345573;28;1071;-58
2023/12/13 00:14:12;;;;;;;3.45;2.33;;;15.70;72.40;;;;;;345530;28;1348;-59
2023/12/13 00:14:23;;;;;;;2.83;2.40;;;15.70;72.40;;;;;;345612;28;1036;-58
2023/12/13 00:14:34;;;;;;;3.75;2.45;;;15.70;72.40;;;;;;345636;28;1024;-59
2023/12/13 00:14:45;;;;;;;3.83;2.53;;;15.70;72.50;;;;;;345662;28;870;-58
2023/12/13 00:14:56;;;;;;;3.97;2.50;;;15.70;72.50;;;;;;345597;28;1014;-58
2023/12/13 00:15:08;;;;;;;3.10;2.45;;;15.70;72.40;;;;;;345618;28;984;-59
2023/12/13 00:15:19;;;;;;;3.13;2.40;;;15.70;72.40;;;;;;345732;28;980;-59
2023/12/13 00:15:30;;;;;;;2.90;2.35;;;15.70;72.40;;;;;;345661;28;1346;-59
2023/12/13 00:15:41;;;;;;;2.87;2.27;;;15.70;72.30;;;;;;345526;28;976;-59
2023/12/13 00:15:51;;;;;;;2.72;2.30;;;15.70;72.30;;;;;;345648;28;934;-58
2023/12/13 00:16:03;;;;;;;2.70;2.30;;;15.70;72.30;;;;;;345560;28;1303;-59
2023/12/13 00:16:14;;;;;;;2.78;2.30;;;15.70;72.30;;;;;;345542;28;1635;-58
2023/12/13 00:16:24;;;;;;;2.80;2.38;;;15.70;72.30;;;;;;345654;28;869;-59
2023/12/13 00:16:39;;;;;;;3.23;2.63;;;15.70;72.30;;;;;;345716;28;1019;-62
2023/12/13 00:16:50;;;;;;;3.90;2.78;;;15.70;72.20;;;;;;345543;28;1182;-59
2023/12/13 00:17:01;;;;;;;3.95;2.70;;;15.70;72.20;;;;;;345637;28;1801;-58
2023/12/13 00:17:14;;;;;;;3.20;2.60;;;15.70;72.20;;;;;;345673;28;897;-60
2023/12/13 00:17:25;;;;;;;3.13;2.70;;;15.70;72.20;;;;;;345544;28;1131;-59
2023/12/13 00:17:35;;;;;;;2.90;2.60;;;15.70;72.20;;;;;;345636;28;1071;-59
2023/12/13 00:17:46;;;;;;;2.83;2.47;;;15.70;72.20;;;;;;345635;28;1031;-57
2023/12/13 00:17:57;;;;;;;3.67;2.57;;;15.70;72.20;;;;;;345600;28;961;-59
2023/12/13 00:18:08;;;;;;;3.92;2.47;;;15.80;72.20;;;;;;345626;28;892;-59
2023/12/13 00:18:18;;;;;;;3.95;2.50;;;15.70;72.10;;;;;;345576;28;1096;-59
2023/12/13 00:18:30;;;;;;;2.88;2.35;;;15.70;72.10;;;;;;345599;28;1027;-59
2023/12/13 00:18:41;;;;;;;2.88;2.40;;;15.70;72.10;;;;;;345672;28;836;-59
2023/12/13 00:18:52;;;;;;;3.13;2.42;;;15.70;72.10;;;;;;345648;28;1015;-58
2023/12/13 00:19:04;;;;;;;3.38;2.55;;;15.70;72.20;;;;;;345602;28;1023;-60
2023/12/13 00:19:15;;;;;;;3.55;2.60;;;15.70;72.20;;;;;;345621;28;1402;-60
2023/12/13 00:19:25;;;;;;;3.65;2.72;;;15.70;72.10;;;;;;345671;28;964;-58
2023/12/13 00:19:36;;;;;;;3.55;2.70;;;15.70;72.10;;;;;;345481;28;1246;-59
2023/12/13 00:19:47;;;;;;;3.40;2.67;;;15.70;72.10;;;;;;345684;28;920;-58
2023/12/13 00:19:58;;;;;;;3.70;2.80;;;15.70;72.10;;;;;;345628;28;1076;-58
2023/12/13 00:20:09;;;;;;;3.80;2.80;;;15.70;72.10;;;;;;345580;28;977;-60
2023/12/13 00:20:20;;;;;;;3.53;2.77;;;15.70;72.10;;;;;;345626;28;1169;-59
2023/12/13 00:20:30;;;;;;;3.10;2.50;;;15.70;72.10;;;;;;345618;28;988;-57
2023/12/13 00:20:41;;;;;;;3.90;2.60;;;15.70;72.10;;;;;;345541;28;982;-57
2023/12/13 00:20:52;;;;;;;4.03;2.70;;;15.70;72.10;;;;;;345695;28;1126;-58
2023/12/13 00:21:03;;;;;;;4.20;2.75;;;15.70;72.10;;;;;;345690;28;1004;-59
2023/12/13 00:21:17;;;;;;;3.28;2.70;;;15.70;72.10;;;;;;345504;28;1132;-59
2023/12/13 00:21:28;;;;;;;3.70;2.85;;;15.70;72.00;;;;;;345593;28;2099;-59
2023/12/13 00:21:39;;;;;;;3.70;3.00;;;15.70;72.10;;;;;;345633;28;1107;-60
2023/12/13 00:21:49;;;;;;;3.65;2.90;;;15.70;72.10;;;;;;345574;28;1028;-59
2023/12/13 00:22:00;;;;;;;4.05;2.78;;;15.70;72.10;;;;;;345521;28;1340;-58
2023/12/13 00:22:11;;;;;;;4.33;2.60;;;15.70;72.20;;;;;;345586;28;1083;-59
2023/12/13 00:22:22;;;;;;;4.07;2.58;;;15.70;72.20;;;;;;345494;28;1020;-60
2023/12/13 00:22:33;;;;;;;3.95;2.90;;;15.70;72.30;;;;;;345557;28;1027;-58
2023/12/13 00:22:44;;;;;;;4.50;3.30;;;15.70;72.30;;;;;;345582;28;1031;-59
2023/12/13 00:22:55;;;;;;;4.70;3.30;;;15.70;72.40;;;;;;345548;28;969;-58
2023/12/13 00:23:06;;;;;;;4.30;3.08;;;15.70;72.40;;;;;;345670;28;974;-59
2023/12/13 00:23:17;;;;;;;3.95;2.90;;;15.70;72.50;;;;;;345678;28;1001;-59
2023/12/13 00:23:27;;;;;;;4.03;2.90;;;15.70;72.50;;;;;;345607;28;1079;-59
2023/12/13 00:23:38;;;;;;;4.38;2.80;;;15.70;72.50;;;;;;345551;28;1451;-59
2023/12/13 00:23:49;;;;;;;3.87;2.77;;;15.70;72.50;;;;;;345665;28;967;-58
2023/12/13 00:23:59;;;;;;;3.55;2.63;;;15.70;72.50;;;;;;345571;28;1067;-58
2023/12/13 00:24:12;;;;;;;3.22;2.90;;;15.70;72.50;;;;;;345544;28;1955;-59
2023/12/13 00:24:23;;;;;;;3.58;2.88;;;15.70;72.40;;;;;;345661;28;1000;-59
2023/12/13 00:24:34;;;;;;;3.85;2.88;;;15.70;72.40;;;;;;345564;28;1043;-58
2023/12/13 00:24:45;;;;;;;3.80;2.78;;;15.70;72.50;;;;;;345659;28;964;-59
2023/12/13 00:24:56;;;;;;;4.13;2.95;;;15.70;72.50;;;;;;345643;28;1012;-58
2023/12/13 00:25:07;;;;;;;3.85;2.90;;;15.70;72.40;;;;;;345562;28;2283;-59
2023/12/13 00:25:19;;;;;;;4.55;2.90;;;15.70;72.50;;;;;;345615;28;1102;-59
2023/12/13 00:25:30;;;;;;;4.03;2.80;;;15.70;72.50;;;;;;345653;28;1190;-58
2023/12/13 00:25:41;;;;;;;3.85;2.90;;;15.70;72.50;;;;;;345636;28;1134;-59
2023/12/13 00:25:51;;;;;;;3.20;2.75;;;15.70;72.40;;;;;;345563;28;1050;-59
2023/12/13 00:26:02;;;;;;;3.53;2.70;;;15.70;72.50;;;;;;345653;28;798;-60
2023/12/13 00:26:17;;;;;;;3.63;2.72;;;15.70;72.50;;;;;;345644;28;841;-58
2023/12/13 00:26:28;;;;;;;3.92;3.03;;;15.70;72.40;;;;;;345585;28;975;-59
2023/12/13 00:26:39;;;;;;;4.38;3.22;;;15.70;72.40;;;;;;345723;28;1008;-60
2023/12/13 00:26:50;;;;;;;4.55;3.20;;;15.70;72.40;;;;;;345650;28;1102;-59
2023/12/13 00:27:01;;;;;;;3.90;2.88;;;15.70;72.40;;;;;;345627;28;913;-59
2023/12/13 00:27:12;;;;;;;3.75;2.70;;;15.70;72.40;;;;;;345589;28;1121;-59
2023/12/13 00:27:22;;;;;;;4.65;2.90;;;15.70;72.40;;;;;;345559;28;1624;-59
2023/12/13 00:27:33;;;;;;;4.70;3.03;;;15.70;72.40;;;;;;345636;28;2080;-59
2023/12/13 00:27:44;;;;;;;4.35;3.15;;;15.70;72.40;;;;;;345591;28;996;-60
2023/12/13 00:27:56;;;;;;;3.90;3.17;;;15.70;72.30;;;;;;345595;28;952;-60
2023/12/13 00:28:07;;;;;;;4.15;3.30;;;15.70;72.40;;;;;;345719;28;806;-59
2023/12/13 00:28:17;;;;;;;4.07;3.30;;;15.70;72.40;;;;;;345638;28;1000;-59
2023/12/13 00:28:28;;;;;;;3.70;3.03;;;15.70;72.30;;;;;;345679;28;888;-59
2023/12/13 00:28:39;;;;;;;3.53;3.00;;;15.70;72.30;;;;;;345526;28;1056;-56
2023/12/13 00:28:50;;;;;;;4.00;2.97;;;15.70;72.30;;;;;;345648;28;1047;-58
2023/12/13 00:29:01;;;;;;;4.25;3.03;;;15.70;72.30;;;;;;345582;28;1127;-59
2023/12/13 00:29:12;;;;;;;4.22;3.10;;;15.70;72.30;;;;;;345569;28;1092;-59
2023/12/13 00:29:22;;;;;;;3.50;3.10;;;15.70;72.30;;;;;;345550;28;1043;-58
2023/12/13 00:29:33;;;;;;;3.40;3.10;;;15.70;72.40;;;;;;345663;28;972;-58
2023/12/13 00:29:44;;;;;;;3.72;3.00;;;15.70;72.30;;;;;;345614;28;1320;-59
2023/12/13 00:29:55;;;;;;;3.88;2.92;;;15.60;72.30;;;;;;345519;28;1104;-58
2023/12/13 00:30:06;;;;;;;4.13;2.90;;;15.60;72.30;;;;;;345528;28;976;-62
2023/12/13 00:30:17;;;;;;;4.68;3.00;;;15.60;72.30;;;;;;345144;28;1169;-60
2023/12/13 00:30:28;;;;;;;4.90;3.00;;;15.60;72.50;;;;;;345649;28;1135;-59
2023/12/13 00:30:39;;;;;;;4.30;3.00;;;15.50;72.60;;;;;;345176;28;1008;-58
2023/12/13 00:30:50;;;;;;;3.47;2.90;;;15.50;72.60;;;;;;345666;28;1023;-59
2023/12/13 00:31:01;;;;;;;3.13;2.83;;;15.50;72.50;;;;;;345507;28;1183;-59
2023/12/13 00:31:12;;;;;;;3.40;3.10;;;15.50;72.70;;;;;;345632;28;1818;-60
2023/12/13 00:31:23;;;;;;;4.15;3.42;;;15.50;72.60;;;;;;345636;28;1194;-59
2023/12/13 00:31:35;;;;;;;4.40;3.40;;;15.50;72.70;;;;;;345642;28;1123;-59
2023/12/13 00:31:46;;;;;;;4.32;3.30;;;15.40;72.70;;;;;;345667;28;908;-59
2023/12/13 00:31:57;;;;;;;3.90;3.20;;;15.50;72.60;;;;;;345553;28;1070;-58
2023/12/13 00:32:07;;;;;;;3.78;3.25;;;15.40;72.80;;;;;;345507;28;1228;-59
2023/12/13 00:32:18;;;;;;;3.90;3.25;;;15.40;72.90;;;;;;345554;28;2172;-59
2023/12/13 00:32:29;;;;;;;4.27;3.43;;;15.40;72.90;;;;;;345621;28;1174;-59
2023/12/13 00:32:40;;;;;;;5.07;3.43;;;15.40;72.90;;;;;;345635;28;890;-59
2023/12/13 00:32:50;;;;;;;4.88;3.30;;;15.40;73.00;;;;;;345550;28;990;-60
2023/12/13 00:33:01;;;;;;;4.10;2.90;;;15.40;72.90;;;;;;345531;28;1158;-58
2023/12/13 00:33:12;;;;;;;3.13;2.80;;;15.40;72.90;;;;;;345650;28;1245;-58
2023/12/13 00:33:23;;;;;;;3.53;2.83;;;15.40;72.90;;;;;;345597;28;1123;-59
2023/12/13 00:33:33;;;;;;;4.65;3.03;;;15.40;72.90;;;;;;345611;28;1051;-59
2023/12/13 00:33:44;;;;;;;4.93;3.00;;;15.50;72.90;;;;;;345494;28;1091;-58
2023/12/13 00:33:55;;;;;;;4.70;3.20;;;15.50;72.80;;;;;;345567;28;1357;-59
2023/12/13 00:34:06;;;;;;;3.97;3.15;;;15.40;72.80;;;;;;345654;28;936;-59
2023/12/13 00:34:16;;;;;;;4.07;3.03;;;15.50;72.80;;;;;;345608;28;838;-59
2023/12/13 00:34:27;;;;;;;4.32;3.00;;;15.50;72.80;;;;;;345630;28;1083;-59
2023/12/13 00:34:38;;;;;;;4.50;3.03;;;15.50;72.80;;;;;;345585;28;1199;-59
2023/12/13 00:34:49;;;;;;;4.38;3.10;;;15.50;72.80;;;;;;345628;28;1020;-58
2023/12/13 00:35:00;;;;;;;4.20;3.05;;;15.50;72.80;;;;;;345627;28;1124;-58
2023/12/13 00:35:11;;;;;;;3.97;3.15;;;15.50;72.80;;;;;;345618;28;1091;-59
2023/12/13 00:35:21;;;;;;;4.57;3.58;;;15.50;72.70;;;;;;345590;28;1000;-59
2023/12/13 00:35:32;;;;;;;4.57;3.67;;;15.60;72.70;;;;;;345516;28;1031;-59
2023/12/13 00:35:43;;;;;;;4.20;3.50;;;15.50;72.60;;;;;;345614;28;1008;-59
2023/12/13 00:35:53;;;;;;;4.20;3.50;;;15.50;72.70;;;;;;345624;28;1027;-60
2023/12/13 00:36:05;;;;;;;4.78;3.60;;;15.50;72.70;;;;;;345550;28;943;-59
2023/12/13 00:36:16;;;;;;;5.25;3.55;;;15.50;72.80;;;;;;345631;28;964;-60
2023/12/13 00:36:27;;;;;;;5.05;3.40;;;15.50;72.80;;;;;;345639;28;1086;-57
2023/12/13 00:36:37;;;;;;;4.63;3.38;;;15.50;72.70;;;;;;345473;28;1312;-60
2023/12/13 00:36:48;;;;;;;3.78;3.22;;;15.50;72.70;;;;;;345650;28;815;-58
2023/12/13 00:36:59;;;;;;;3.75;3.05;;;15.50;72.70;;;;;;345648;28;1086;-59
2023/12/13 00:37:10;;;;;;;3.60;2.90;;;15.50;72.70;;;;;;345565;28;1037;-58
2023/12/13 00:37:21;;;;;;;3.97;3.00;;;15.50;72.70;;;;;;345595;28;897;-59
2023/12/13 00:37:31;;;;;;;4.13;3.05;;;15.50;72.70;;;;;;345673;28;892;-58
2023/12/13 00:37:42;;;;;;;4.30;3.30;;;15.50;72.70;;;;;;345581;28;896;-59
2023/12/13 00:37:54;;;;;;;4.13;3.30;;;15.50;72.60;;;;;;345588;28;1056;-59
2023/12/13 00:38:04;;;;;;;4.50;3.30;;;15.60;72.60;;;;;;345656;28;904;-59
2023/12/13 00:38:15;;;;;;;4.55;3.15;;;15.50;72.50;;;;;;345468;28;1028;-59
2023/12/13 00:38:26;;;;;;;4.45;3.20;;;15.50;72.50;;;;;;345617;28;1126;-59
2023/12/13 00:38:37;;;;;;;3.97;3.20;;;15.50;72.50;;;;;;345657;28;932;-60
2023/12/13 00:38:48;;;;;;;3.90;3.17;;;15.50;72.60;;;;;;345506;28;1965;-58
2023/12/13 00:38:58;;;;;;;3.67;3.13;;;15.50;72.70;;;;;;345552;28;992;-59
2023/12/13 00:39:09;;;;;;;3.93;3.20;;;15.50;72.70;;;;;;345596;28;1337;-58
2023/12/13 00:39:20;;;;;;;4.95;3.40;;;15.50;72.80;;;;;;345573;28;939;-58
2023/12/13 00:39:32;;;;;;;5.65;3.50;;;15.50;72.80;;;;;;345626;28;830;-58
2023/12/13 00:39:43;;;;;;;5.57;3.50;;;15.50;72.90;;;;;;345600;28;1504;-58
2023/12/13 00:39:54;;;;;;;5.10;3.50;;;15.50;72.90;;;;;;345530;28;1179;-59
2023/12/13 00:40:06;;;;;;;4.35;3.25;;;15.50;72.90;;;;;;345626;28;1032;-58
2023/12/13 00:40:18;;;;;;;4.03;3.15;;;15.40;72.90;;;;;;345629;28;1023;-58
2023/12/13 00:40:29;;;;;;;4.03;3.10;;;15.50;72.90;;;;;;345510;28;980;-59
2023/12/13 00:40:40;;;;;;;3.95;3.17;;;15.50;73.00;;;;;;345677;28;814;-58
2023/12/13 00:40:51;;;;;;;3.80;3.13;;;15.50;73.00;;;;;;345547;28;1127;-60
2023/12/13 00:41:02;;;;;;;3.92;3.38;;;15.50;72.90;;;;;;345648;28;1004;-59
2023/12/13 00:41:13;;;;;;;4.05;3.33;;;15.50;72.90;;;;;;345574;28;1436;-58
2023/12/13 00:41:24;;;;;;;4.28;3.20;;;15.50;72.80;;;;;;345525;28;1043;-58
2023/12/13 00:41:35;;;;;;;4.47;3.28;;;15.40;72.90;;;;;;345634;28;1062;-58
2023/12/13 00:41:45;;;;;;;4.65;3.33;;;15.40;73.00;;;;;;345631;28;921;-59
2023/12/13 00:41:56;;;;;;;4.43;3.40;;;15.40;73.10;;;;;;345485;28;1163;-58
2023/12/13 00:42:07;;;;;;;4.43;3.47;;;15.40;73.00;;;;;;345598;28;982;-59
2023/12/13 00:42:18;;;;;;;4.50;3.57;;;15.40;73.10;;;;;;345635;28;810;-59
2023/12/13 00:42:28;;;;;;;4.35;3.55;;;15.40;73.10;;;;;;345464;28;1131;-59
2023/12/13 00:42:39;;;;;;;4.18;3.60;;;15.40;73.10;;;;;;345551;28;1041;-59
2023/12/13 00:42:50;;;;;;;4.80;3.60;;;15.40;73.20;;;;;;345622;28;1115;-59
2023/12/13 00:43:01;;;;;;;4.70;3.40;;;15.40;73.10;;;;;;345556;28;1803;-59
2023/12/13 00:43:12;;;;;;;4.90;3.42;;;15.40;73.10;;;;;;345639;28;1063;-59
2023/12/13 00:43:23;;;;;;;4.60;3.45;;;15.40;73.10;;;;;;345672;28;900;-59
2023/12/13 00:43:33;;;;;;;4.80;3.50;;;15.40;73.00;;;;;;345554;28;1032;-58
2023/12/13 00:43:46;;;;;;;5.10;3.50;;;15.30;73.20;;;;;;345592;28;1419;-58
2023/12/13 00:43:56;;;;;;;4.80;3.53;;;15.30;73.30;;;;;;345472;28;1028;-59
2023/12/13 00:44:07;;;;;;;4.60;3.50;;;15.30;73.40;;;;;;345612;28;1221;-59
2023/12/13 00:44:18;;;;;;;5.10;3.70;;;15.20;73.40;;;;;;345543;28;1972;-60
2023/12/13 00:44:29;;;;;;;4.93;3.50;;;15.20;73.60;;;;;;345483;28;1921;-60
2023/12/13 00:44:40;;;;;;;4.63;3.50;;;15.20;73.60;;;;;;345610;28;1040;-58
2023/12/13 00:44:51;;;;;;;4.25;3.40;;;15.20;73.60;;;;;;345609;28;1048;-58
2023/12/13 00:45:02;;;;;;;4.15;3.47;;;15.20;73.60;;;;;;345485;28;1162;-59
2023/12/13 00:45:12;;;;;;;4.15;3.35;;;15.20;73.80;;;;;;345626;28;901;-60
2023/12/13 00:45:23;;;;;;;4.40;3.50;;;15.20;73.80;;;;;;345650;28;896;-61
2023/12/13 00:45:34;;;;;;;4.38;3.55;;;15.20;73.80;;;;;;345541;28;1051;-60
2023/12/13 00:45:45;;;;;;;5.00;3.50;;;15.20;73.80;;;;;;345552;28;937;-58
2023/12/13 00:45:56;;;;;;;5.20;3.47;;;15.20;73.70;;;;;;345684;28;821;-58
2023/12/13 00:46:13;;;;;;;5.28;3.60;;;15.30;73.70;;;;;;345600;28;1736;-59
2023/12/13 00:46:24;;;;;;;4.32;3.63;;;15.30;73.70;;;;;;345582;28;1063;-58
2023/12/13 00:46:35;;;;;;;3.97;3.40;;;15.30;73.60;;;;;;345590;28;969;-59
2023/12/13 00:46:46;;;;;;;3.90;3.28;;;15.30;73.60;;;;;;345626;28;1603;-59
2023/12/13 00:46:57;;;;;;;5.93;3.43;;;15.30;73.60;;;;;;345645;28;1040;-58
2023/12/13 00:47:07;;;;;;;6.28;3.53;;;15.30;73.60;;;;;;345595;28;846;-59
2023/12/13 00:47:18;;;;;;;6.18;3.63;;;15.30;73.50;;;;;;345584;28;888;-58
2023/12/13 00:47:29;;;;;;;4.00;3.53;;;15.30;73.50;;;;;;345623;28;886;-58
2023/12/13 00:47:40;;;;;;;4.00;3.50;;;15.40;73.40;;;;;;345566;28;1020;-59
2023/12/13 00:47:50;;;;;;;5.95;3.50;;;15.40;73.40;;;;;;345628;28;901;-58
2023/12/13 00:48:01;;;;;;;5.72;3.40;;;15.40;73.30;;;;;;345620;28;1003;-59
2023/12/13 00:48:12;;;;;;;5.97;3.40;;;15.40;73.20;;;;;;345558;28;980;-58
2023/12/13 00:48:23;;;;;;;4.30;3.40;;;15.40;73.20;;;;;;345641;28;1071;-59
2023/12/13 00:48:34;;;;;;;4.38;3.40;;;15.40;73.10;;;;;;345609;28;846;-59
2023/12/13 00:48:44;;;;;;;4.50;3.50;;;15.40;73.10;;;;;;345531;28;1008;-58
2023/12/13 00:48:55;;;;;;;4.70;3.47;;;15.40;73.10;;;;;;345627;28;992;-59
2023/12/13 00:49:06;;;;;;;4.40;3.30;;;15.40;73.10;;;;;;345515;28;991;-58
2023/12/13 00:49:17;;;;;;;3.88;3.17;;;15.40;73.20;;;;;;345610;28;821;-58
2023/12/13 00:49:27;;;;;;;3.60;3.10;;;15.30;73.20;;;;;;345612;28;976;-59
2023/12/13 00:49:38;;;;;;;3.90;3.20;;;15.40;73.30;;;;;;345545;28;1155;-59
2023/12/13 00:49:49;;;;;;;4.27;3.40;;;15.40;73.30;;;;;;345571;28;1083;-58
2023/12/13 00:50:00;;;;;;;5.03;3.72;;;15.40;73.30;;;;;;345490;28;1083;-59
2023/12/13 00:50:10;;;;;;;5.13;3.83;;;15.40;73.30;;;;;;345559;28;984;-60
2023/12/13 00:50:21;;;;;;;4.18;3.67;;;15.30;73.30;;;;;;345595;28;1016;-59
2023/12/13 00:50:32;;;;;;;4.10;3.63;;;15.30;73.30;;;;;;345547;28;1170;-59
2023/12/13 00:50:43;;;;;;;4.33;3.80;;;15.30;73.20;;;;;;345546;28;1024;-59
2023/12/13 00:50:55;;;;;;;5.05;3.88;;;15.30;73.40;;;;;;345559;28;961;-58
2023/12/13 00:51:18;;;;;;;5.05;3.70;;;15.20;73.40;;;;;;345628;28;833;-58
2023/12/13 00:51:30;;;;;;;4.75;3.20;;;15.30;73.40;;;;;;345509;28;868;-58
2023/12/13 00:51:41;;;;;;;4.53;3.33;;;15.20;73.30;;;;;;345415;28;1928;-59
2023/12/13 00:51:52;;;;;;;4.50;3.30;;;15.10;73.60;;;;;;345476;28;1143;-58
2023/12/13 00:52:03;;;;;;;3.90;3.37;;;15.10;73.80;;;;;;345495;28;1044;-59
2023/12/13 00:52:13;;;;;;;3.70;3.25;;;15.00;74.10;;;;;;345424;28;1120;-58
2023/12/13 00:52:26;;;;;;;4.05;3.30;;;15.00;74.20;;;;;;345499;28;1043;-59
2023/12/13 00:52:37;;;;;;;4.10;3.40;;;15.00;74.40;;;;;;345360;28;1348;-58
2023/12/13 00:52:48;;;;;;;3.97;3.35;;;14.90;74.60;;;;;;345481;28;1147;-59
2023/12/13 00:52:58;;;;;;;4.60;3.30;;;15.00;74.70;;;;;;345488;28;1023;-59
2023/12/13 00:53:09;;;;;;;5.05;3.17;;;15.00;74.70;;;;;;345541;28;892;-58
2023/12/13 00:53:20;;;;;;;4.68;3.10;;;15.00;74.60;;;;;;345511;28;865;-59
2023/12/13 00:53:31;;;;;;;4.40;3.20;;;15.00;74.60;;;;;;345536;28;1027;-58
2023/12/13 00:53:41;;;;;;;5.40;3.20;;;15.10;74.50;;;;;;345545;28;1016;-58
2023/12/13 00:53:52;;;;;;;5.40;3.20;;;15.10;74.50;;;;;;345654;28;969;-59
2023/12/13 00:54:03;;;;;;;4.67;2.97;;;15.10;74.40;;;;;;345636;28;802;-59
2023/12/13 00:54:14;;;;;;;4.20;3.00;;;15.10;74.20;;;;;;345561;28;1091;-58
2023/12/13 00:54:25;;;;;;;4.32;2.97;;;15.20;74.20;;;;;;345585;28;931;-61
2023/12/13 00:54:36;;;;;;;4.54;3.10;;;15.20;74.10;;;;;;345640;28;1043;-58
2023/12/13 00:54:47;;;;;;;5.03;3.10;;;15.20;74.00;;;;;;345547;28;1054;-59
2023/12/13 00:55:00;;;;;;;4.88;3.08;;;15.20;73.90;;;;;;345557;28;1840;-60
2023/12/13 00:55:11;;;;;;;5.47;3.25;;;15.20;73.90;;;;;;345584;28;1031;-58
2023/12/13 00:55:22;;;;;;;4.85;3.30;;;15.20;73.90;;;;;;345466;28;1095;-60
2023/12/13 00:55:33;;;;;;;4.20;3.30;;;15.20;73.80;;;;;;345584;28;965;-59
2023/12/13 00:55:43;;;;;;;4.20;3.15;;;15.20;73.90;;;;;;345614;28;1071;-58
2023/12/13 00:55:54;;;;;;;4.20;3.15;;;15.20;73.80;;;;;;345527;28;1162;-58
2023/12/13 00:56:06;;;;;;;5.15;3.33;;;15.20;73.70;;;;;;345614;28;807;-59
2023/12/13 00:56:17;;;;;;;5.50;3.50;;;15.30;73.70;;;;;;345518;28;1514;-59
2023/12/13 00:56:30;;;;;;;5.95;3.70;;;15.20;73.70;;;;;;345577;28;1545;-58
2023/12/13 00:56:41;;;;;;;5.15;3.55;;;15.20;73.70;;;;;;345584;28;1031;-59
2023/12/13 00:56:52;;;;;;;5.32;3.70;;;15.30;73.70;;;;;;345511;28;935;-59
2023/12/13 00:57:03;;;;;;;5.10;3.80;;;15.30;73.70;;;;;;345618;28;901;-59
2023/12/13 00:57:14;;;;;;;5.53;3.95;;;15.30;73.70;;;;;;345589;28;1012;-59
2023/12/13 00:57:25;;;;;;;5.45;3.90;;;15.30;73.60;;;;;;345513;28;1023;-58
2023/12/13 00:57:36;;;;;;;5.72;3.70;;;15.30;73.60;;;;;;345602;28;996;-58
2023/12/13 00:57:47;;;;;;;5.65;3.78;;;15.30;73.60;;;;;;345631;28;996;-58
2023/12/13 00:57:58;;;;;;;5.25;4.00;;;15.30;73.50;;;;;;345567;28;1083;-59
2023/12/13 00:58:09;;;;;;;4.68;3.92;;;15.40;73.50;;;;;;345502;28;1044;-59
2023/12/13 00:58:19;;;;;;;5.65;3.90;;;15.40;73.50;;;;;;345476;28;1178;-58
2023/12/13 00:58:30;;;;;;;5.85;3.75;;;15.40;73.40;;;;;;345601;28;972;-59
2023/12/13 00:58:42;;;;;;;5.78;3.67;;;15.40;73.40;;;;;;345525;28;924;-59
2023/12/13 00:58:53;;;;;;;4.38;3.50;;;15.40;73.40;;;;;;345607;28;1895;-59
2023/12/13 00:59:04;;;;;;;4.17;3.43;;;15.40;73.30;;;;;;345510;28;1575;-59
2023/12/13 00:59:15;;;;;;;5.05;3.42;;;15.40;73.30;;;;;;345482;28;1068;-59